sensor_id;sensor_type;location;lat;lon;timestamp;P1;durP1;ratioP1;P2;durP2;ratioP2
27539;SDS011;15906;52.046;4.724;2023-06-26T00:02:09;6.13;;;4.40;;
27539;SDS011;15906;52.046;4.724;2023-06-26T00:04:34;6.93;;;5.03;;
27539;SDS011;15906;52.046;4.724;2023-06-26T00:07:02;4.90;;;4.40;;
27539;SDS011;15906;52.046;4.724;2023-06-26T00:09:29;5.03;;;4.35;;
27539;SDS011;15906;52.046;4.724;2023-06-26T00:11:54;5.82;;;4.35;;
27539;SDS011;15906;52.046;4.724;2023-06-26T00:14:20;6.85;;;5.20;;
27539;SDS011;15906;52.046;4.724;2023-06-26T00:16:46;7.30;;;5.43;;
27539;SDS011;15906;52.046;4.724;2023-06-26T00:19:14;6.60;;;5.72;;
27539;SDS011;15906;52.046;4.724;2023-06-26T00:21:40;8.50;;;5.45;;
27539;SDS011;15906;52.046;4.724;2023-06-26T00:24:06;9.63;;;6.03;;
27539;SDS011;15906;52.046;4.724;2023-06-26T00:26:31;7.07;;;5.63;;
27539;SDS011;15906;52.046;4.724;2023-06-26T00:28:57;7.55;;;5.85;;
27539;SDS011;15906;52.046;4.724;2023-06-26T00:31:22;6.82;;;5.60;;
27539;SDS011;15906;52.046;4.724;2023-06-26T00:33:48;7.82;;;5.07;;
27539;SDS011;15906;52.046;4.724;2023-06-26T00:36:13;9.40;;;5.43;;
27539;SDS011;15906;52.046;4.724;2023-06-26T00:38:39;6.90;;;5.93;;
27539;SDS011;15906;52.046;4.724;2023-06-26T00:41:05;6.97;;;5.13;;
27539;SDS011;15906;52.046;4.724;2023-06-26T00:43:37;6.25;;;4.90;;
27539;SDS011;15906;52.046;4.724;2023-06-26T00:46:02;7.60;;;4.90;;
27539;SDS011;15906;52.046;4.724;2023-06-26T00:48:28;10.07;;;5.53;;
27539;SDS011;15906;52.046;4.724;2023-06-26T00:50:54;12.48;;;5.47;;
27539;SDS011;15906;52.046;4.724;2023-06-26T00:53:20;8.90;;;5.18;;
27539;SDS011;15906;52.046;4.724;2023-06-26T00:55:46;10.02;;;5.22;;
27539;SDS011;15906;52.046;4.724;2023-06-26T00:58:12;11.80;;;5.05;;
27539;SDS011;15906;52.046;4.724;2023-06-26T01:00:38;8.00;;;4.97;;
27539;SDS011;15906;52.046;4.724;2023-06-26T01:03:04;9.75;;;4.88;;
27539;SDS011;15906;52.046;4.724;2023-06-26T01:05:29;12.82;;;5.15;;
27539;SDS011;15906;52.046;4.724;2023-06-26T01:07:56;9.48;;;4.90;;
27539;SDS011;15906;52.046;4.724;2023-06-26T01:10:23;12.90;;;5.15;;
27539;SDS011;15906;52.046;4.724;2023-06-26T01:12:49;9.98;;;4.60;;
27539;SDS011;15906;52.046;4.724;2023-06-26T01:15:15;10.50;;;4.63;;
27539;SDS011;15906;52.046;4.724;2023-06-26T01:17:40;11.05;;;4.85;;
27539;SDS011;15906;52.046;4.724;2023-06-26T01:20:10;9.15;;;4.55;;
27539;SDS011;15906;52.046;4.724;2023-06-26T01:22:38;8.23;;;4.22;;
27539;SDS011;15906;52.046;4.724;2023-06-26T01:28:42;12.40;;;4.57;;
27539;SDS011;15906;52.046;4.724;2023-06-26T01:31:08;10.23;;;4.35;;
27539;SDS011;15906;52.046;4.724;2023-06-26T01:33:37;12.70;;;5.13;;
27539;SDS011;15906;52.046;4.724;2023-06-26T01:36:05;9.00;;;4.43;;
27539;SDS011;15906;52.046;4.724;2023-06-26T01:38:31;14.75;;;5.13;;
27539;SDS011;15906;52.046;4.724;2023-06-26T01:40:57;12.98;;;4.57;;
27539;SDS011;15906;52.046;4.724;2023-06-26T01:46:32;11.32;;;4.82;;
27539;SDS011;15906;52.046;4.724;2023-06-26T01:51:47;11.95;;;4.43;;
27539;SDS011;15906;52.046;4.724;2023-06-26T01:54:23;12.05;;;4.70;;
27539;SDS011;15906;52.046;4.724;2023-06-26T01:56:52;11.02;;;4.75;;
27539;SDS011;15906;52.046;4.724;2023-06-26T01:59:19;12.65;;;5.60;;
27539;SDS011;15906;52.046;4.724;2023-06-26T02:01:47;17.45;;;5.10;;
27539;SDS011;15906;52.046;4.724;2023-06-26T02:04:13;13.48;;;5.80;;
27539;SDS011;15906;52.046;4.724;2023-06-26T02:06:38;13.07;;;5.40;;
27539;SDS011;15906;52.046;4.724;2023-06-26T02:09:04;15.55;;;6.22;;
27539;SDS011;15906;52.046;4.724;2023-06-26T02:11:29;10.68;;;4.72;;
27539;SDS011;15906;52.046;4.724;2023-06-26T02:13:55;12.90;;;5.68;;
27539;SDS011;15906;52.046;4.724;2023-06-26T02:16:20;12.20;;;5.85;;
27539;SDS011;15906;52.046;4.724;2023-06-26T02:18:46;14.05;;;5.68;;
27539;SDS011;15906;52.046;4.724;2023-06-26T02:21:12;11.45;;;5.65;;
27539;SDS011;15906;52.046;4.724;2023-06-26T02:23:38;10.48;;;5.10;;
27539;SDS011;15906;52.046;4.724;2023-06-26T02:26:04;11.60;;;6.10;;
27539;SDS011;15906;52.046;4.724;2023-06-26T02:28:29;14.70;;;6.65;;
27539;SDS011;15906;52.046;4.724;2023-06-26T02:30:56;14.45;;;6.03;;
27539;SDS011;15906;52.046;4.724;2023-06-26T02:33:21;11.93;;;4.95;;
27539;SDS011;15906;52.046;4.724;2023-06-26T02:35:47;11.18;;;5.30;;
27539;SDS011;15906;52.046;4.724;2023-06-26T02:38:15;10.00;;;4.65;;
27539;SDS011;15906;52.046;4.724;2023-06-26T02:40:40;14.48;;;5.75;;
27539;SDS011;15906;52.046;4.724;2023-06-26T02:43:06;10.27;;;4.43;;
27539;SDS011;15906;52.046;4.724;2023-06-26T02:45:31;13.80;;;5.50;;
27539;SDS011;15906;52.046;4.724;2023-06-26T02:47:57;12.85;;;5.00;;
27539;SDS011;15906;52.046;4.724;2023-06-26T02:50:23;13.75;;;5.40;;
27539;SDS011;15906;52.046;4.724;2023-06-26T02:52:48;15.75;;;5.35;;
27539;SDS011;15906;52.046;4.724;2023-06-26T02:55:17;12.43;;;5.25;;
27539;SDS011;15906;52.046;4.724;2023-06-26T02:57:44;18.55;;;5.68;;
27539;SDS011;15906;52.046;4.724;2023-06-26T03:00:09;16.40;;;5.47;;
27539;SDS011;15906;52.046;4.724;2023-06-26T03:02:36;14.55;;;5.10;;
27539;SDS011;15906;52.046;4.724;2023-06-26T03:05:02;11.05;;;5.18;;
27539;SDS011;15906;52.046;4.724;2023-06-26T03:07:29;15.13;;;5.57;;
27539;SDS011;15906;52.046;4.724;2023-06-26T03:09:54;13.40;;;5.57;;
27539;SDS011;15906;52.046;4.724;2023-06-26T03:12:20;19.55;;;5.60;;
27539;SDS011;15906;52.046;4.724;2023-06-26T03:14:45;13.52;;;5.40;;
27539;SDS011;15906;52.046;4.724;2023-06-26T03:17:11;11.57;;;5.43;;
27539;SDS011;15906;52.046;4.724;2023-06-26T03:19:37;12.90;;;5.00;;
27539;SDS011;15906;52.046;4.724;2023-06-26T03:22:02;10.50;;;5.32;;
27539;SDS011;15906;52.046;4.724;2023-06-26T03:24:28;13.80;;;5.45;;
27539;SDS011;15906;52.046;4.724;2023-06-26T03:26:54;18.65;;;5.85;;
27539;SDS011;15906;52.046;4.724;2023-06-26T03:29:20;12.85;;;5.40;;
27539;SDS011;15906;52.046;4.724;2023-06-26T03:31:45;15.43;;;5.88;;
27539;SDS011;15906;52.046;4.724;2023-06-26T03:34:11;16.15;;;5.28;;
27539;SDS011;15906;52.046;4.724;2023-06-26T03:36:36;14.35;;;5.15;;
27539;SDS011;15906;52.046;4.724;2023-06-26T03:39:02;11.90;;;5.28;;
27539;SDS011;15906;52.046;4.724;2023-06-26T03:41:29;14.00;;;5.75;;
27539;SDS011;15906;52.046;4.724;2023-06-26T03:43:54;12.70;;;4.72;;
27539;SDS011;15906;52.046;4.724;2023-06-26T03:46:21;14.18;;;4.72;;
27539;SDS011;15906;52.046;4.724;2023-06-26T03:48:47;11.20;;;4.50;;
27539;SDS011;15906;52.046;4.724;2023-06-26T03:51:12;14.93;;;5.03;;
27539;SDS011;15906;52.046;4.724;2023-06-26T03:53:38;15.52;;;6.70;;
27539;SDS011;15906;52.046;4.724;2023-06-26T03:56:04;15.52;;;4.88;;
27539;SDS011;15906;52.046;4.724;2023-06-26T03:58:29;10.82;;;4.97;;
27539;SDS011;15906;52.046;4.724;2023-06-26T04:00:55;10.48;;;4.82;;
27539;SDS011;15906;52.046;4.724;2023-06-26T04:03:20;15.88;;;5.50;;
27539;SDS011;15906;52.046;4.724;2023-06-26T04:05:46;14.80;;;4.55;;
27539;SDS011;15906;52.046;4.724;2023-06-26T04:08:11;13.98;;;5.45;;
27539;SDS011;15906;52.046;4.724;2023-06-26T04:10:37;13.55;;;4.72;;
27539;SDS011;15906;52.046;4.724;2023-06-26T04:13:03;13.75;;;5.20;;
27539;SDS011;15906;52.046;4.724;2023-06-26T04:15:28;10.63;;;4.25;;
27539;SDS011;15906;52.046;4.724;2023-06-26T04:17:54;13.75;;;5.55;;
27539;SDS011;15906;52.046;4.724;2023-06-26T04:20:19;11.07;;;4.60;;
27539;SDS011;15906;52.046;4.724;2023-06-26T04:22:45;12.18;;;5.30;;
27539;SDS011;15906;52.046;4.724;2023-06-26T04:25:10;10.07;;;4.60;;
27539;SDS011;15906;52.046;4.724;2023-06-26T04:27:39;11.65;;;4.50;;
27539;SDS011;15906;52.046;4.724;2023-06-26T04:30:05;9.98;;;4.70;;
27539;SDS011;15906;52.046;4.724;2023-06-26T04:32:31;10.93;;;4.88;;
27539;SDS011;15906;52.046;4.724;2023-06-26T04:34:56;8.88;;;4.80;;
27539;SDS011;15906;52.046;4.724;2023-06-26T04:37:22;14.77;;;5.13;;
27539;SDS011;15906;52.046;4.724;2023-06-26T04:39:48;14.90;;;4.78;;
27539;SDS011;15906;52.046;4.724;2023-06-26T04:42:13;10.98;;;4.50;;
27539;SDS011;15906;52.046;4.724;2023-06-26T04:44:39;9.65;;;4.43;;
27539;SDS011;15906;52.046;4.724;2023-06-26T04:47:06;12.32;;;4.50;;
27539;SDS011;15906;52.046;4.724;2023-06-26T04:49:32;7.22;;;3.90;;
27539;SDS011;15906;52.046;4.724;2023-06-26T04:51:57;8.68;;;3.60;;
27539;SDS011;15906;52.046;4.724;2023-06-26T04:54:25;9.63;;;3.80;;
27539;SDS011;15906;52.046;4.724;2023-06-26T04:56:50;8.80;;;3.60;;
27539;SDS011;15906;52.046;4.724;2023-06-26T04:59:16;8.02;;;3.63;;
27539;SDS011;15906;52.046;4.724;2023-06-26T05:01:41;7.65;;;3.50;;
27539;SDS011;15906;52.046;4.724;2023-06-26T05:04:09;12.32;;;3.58;;
27539;SDS011;15906;52.046;4.724;2023-06-26T05:06:34;8.07;;;3.67;;
27539;SDS011;15906;52.046;4.724;2023-06-26T05:09:00;8.73;;;3.20;;
27539;SDS011;15906;52.046;4.724;2023-06-26T05:11:25;9.85;;;3.38;;
27539;SDS011;15906;52.046;4.724;2023-06-26T05:13:51;7.00;;;3.78;;
27539;SDS011;15906;52.046;4.724;2023-06-26T05:16:16;7.22;;;3.50;;
27539;SDS011;15906;52.046;4.724;2023-06-26T05:18:42;8.45;;;3.72;;
27539;SDS011;15906;52.046;4.724;2023-06-26T05:21:07;7.47;;;3.10;;
27539;SDS011;15906;52.046;4.724;2023-06-26T05:23:33;8.07;;;3.55;;
27539;SDS011;15906;52.046;4.724;2023-06-26T05:26:02;7.18;;;3.58;;
27539;SDS011;15906;52.046;4.724;2023-06-26T05:28:28;7.72;;;3.10;;
27539;SDS011;15906;52.046;4.724;2023-06-26T05:30:56;9.48;;;3.33;;
27539;SDS011;15906;52.046;4.724;2023-06-26T05:33:23;7.63;;;3.33;;
27539;SDS011;15906;52.046;4.724;2023-06-26T05:35:50;6.68;;;3.65;;
27539;SDS011;15906;52.046;4.724;2023-06-26T05:38:17;8.45;;;4.00;;
27539;SDS011;15906;52.046;4.724;2023-06-26T05:40:44;11.02;;;3.58;;
27539;SDS011;15906;52.046;4.724;2023-06-26T05:43:10;6.75;;;3.47;;
27539;SDS011;15906;52.046;4.724;2023-06-26T05:45:35;9.93;;;3.78;;
27539;SDS011;15906;52.046;4.724;2023-06-26T05:48:01;6.10;;;3.58;;
27539;SDS011;15906;52.046;4.724;2023-06-26T05:50:27;11.23;;;4.00;;
27539;SDS011;15906;52.046;4.724;2023-06-26T05:52:53;6.88;;;3.40;;
27539;SDS011;15906;52.046;4.724;2023-06-26T05:55:19;6.40;;;3.50;;
27539;SDS011;15906;52.046;4.724;2023-06-26T05:57:45;5.70;;;3.40;;
27539;SDS011;15906;52.046;4.724;2023-06-26T06:00:12;7.18;;;2.70;;
27539;SDS011;15906;52.046;4.724;2023-06-26T06:02:38;6.40;;;2.83;;
27539;SDS011;15906;52.046;4.724;2023-06-26T06:05:05;4.97;;;2.40;;
27539;SDS011;15906;52.046;4.724;2023-06-26T06:07:32;5.57;;;2.80;;
27539;SDS011;15906;52.046;4.724;2023-06-26T06:09:58;9.85;;;2.42;;
27539;SDS011;15906;52.046;4.724;2023-06-26T06:12:24;5.65;;;2.55;;
27539;SDS011;15906;52.046;4.724;2023-06-26T06:14:50;6.57;;;2.40;;
27539;SDS011;15906;52.046;4.724;2023-06-26T06:17:16;8.98;;;1.92;;
27539;SDS011;15906;52.046;4.724;2023-06-26T06:19:41;5.05;;;1.80;;
27539;SDS011;15906;52.046;4.724;2023-06-26T06:22:07;7.28;;;3.47;;
27539;SDS011;15906;52.046;4.724;2023-06-26T06:24:32;3.80;;;1.50;;
27539;SDS011;15906;52.046;4.724;2023-06-26T06:26:58;4.72;;;1.40;;
27539;SDS011;15906;52.046;4.724;2023-06-26T06:29:23;8.10;;;2.30;;
27539;SDS011;15906;52.046;4.724;2023-06-26T06:31:49;5.35;;;1.73;;
27539;SDS011;15906;52.046;4.724;2023-06-26T06:34:15;4.03;;;1.60;;
27539;SDS011;15906;52.046;4.724;2023-06-26T06:36:40;8.70;;;1.85;;
27539;SDS011;15906;52.046;4.724;2023-06-26T06:39:06;3.40;;;1.67;;
27539;SDS011;15906;52.046;4.724;2023-06-26T06:41:31;4.35;;;2.10;;
27539;SDS011;15906;52.046;4.724;2023-06-26T06:43:57;3.53;;;1.38;;
27539;SDS011;15906;52.046;4.724;2023-06-26T06:46:22;6.05;;;1.58;;
27539;SDS011;15906;52.046;4.724;2023-06-26T06:48:48;7.82;;;1.48;;
27539;SDS011;15906;52.046;4.724;2023-06-26T06:51:14;2.95;;;1.52;;
27539;SDS011;15906;52.046;4.724;2023-06-26T06:53:39;6.88;;;1.63;;
27539;SDS011;15906;52.046;4.724;2023-06-26T06:56:05;5.72;;;1.77;;
27539;SDS011;15906;52.046;4.724;2023-06-26T06:58:30;3.60;;;1.50;;
27539;SDS011;15906;52.046;4.724;2023-06-26T07:00:58;4.90;;;1.73;;
27539;SDS011;15906;52.046;4.724;2023-06-26T07:03:24;4.93;;;1.80;;
27539;SDS011;15906;52.046;4.724;2023-06-26T07:05:50;6.53;;;1.83;;
27539;SDS011;15906;52.046;4.724;2023-06-26T07:08:15;4.93;;;1.48;;
27539;SDS011;15906;52.046;4.724;2023-06-26T07:10:41;6.15;;;1.50;;
27539;SDS011;15906;52.046;4.724;2023-06-26T07:13:07;5.22;;;1.40;;
27539;SDS011;15906;52.046;4.724;2023-06-26T07:15:32;5.82;;;1.75;;
27539;SDS011;15906;52.046;4.724;2023-06-26T07:17:58;4.55;;;1.30;;
27539;SDS011;15906;52.046;4.724;2023-06-26T07:20:23;7.78;;;2.13;;
27539;SDS011;15906;52.046;4.724;2023-06-26T07:22:49;4.95;;;1.50;;
27539;SDS011;15906;52.046;4.724;2023-06-26T07:25:15;6.13;;;1.45;;
27539;SDS011;15906;52.046;4.724;2023-06-26T07:27:41;3.50;;;1.50;;
27539;SDS011;15906;52.046;4.724;2023-06-26T07:30:07;3.80;;;1.50;;
27539;SDS011;15906;52.046;4.724;2023-06-26T07:32:34;6.03;;;1.40;;
27539;SDS011;15906;52.046;4.724;2023-06-26T07:35:00;4.60;;;1.40;;
27539;SDS011;15906;52.046;4.724;2023-06-26T07:37:26;13.93;;;1.70;;
27539;SDS011;15906;52.046;4.724;2023-06-26T07:39:52;9.27;;;1.70;;
27539;SDS011;15906;52.046;4.724;2023-06-26T07:42:17;7.50;;;1.73;;
27539;SDS011;15906;52.046;4.724;2023-06-26T07:44:43;5.00;;;1.38;;
27539;SDS011;15906;52.046;4.724;2023-06-26T07:47:09;3.70;;;1.55;;
27539;SDS011;15906;52.046;4.724;2023-06-26T07:49:35;4.35;;;1.55;;
27539;SDS011;15906;52.046;4.724;2023-06-26T07:52:00;5.68;;;1.58;;
27539;SDS011;15906;52.046;4.724;2023-06-26T07:54:26;3.88;;;1.27;;
27539;SDS011;15906;52.046;4.724;2023-06-26T07:56:59;5.55;;;1.88;;
27539;SDS011;15906;52.046;4.724;2023-06-26T07:59:26;5.22;;;1.38;;
27539;SDS011;15906;52.046;4.724;2023-06-26T08:01:53;7.28;;;1.80;;
27539;SDS011;15906;52.046;4.724;2023-06-26T08:04:20;4.25;;;1.63;;
27539;SDS011;15906;52.046;4.724;2023-06-26T08:06:50;5.32;;;1.55;;
27539;SDS011;15906;52.046;4.724;2023-06-26T08:09:16;8.07;;;1.70;;
27539;SDS011;15906;52.046;4.724;2023-06-26T08:11:43;4.20;;;1.40;;
27539;SDS011;15906;52.046;4.724;2023-06-26T08:14:09;5.95;;;1.67;;
27539;SDS011;15906;52.046;4.724;2023-06-26T08:16:36;7.45;;;1.88;;
27539;SDS011;15906;52.046;4.724;2023-06-26T08:19:03;8.10;;;1.88;;
27539;SDS011;15906;52.046;4.724;2023-06-26T08:21:28;3.97;;;1.65;;
27539;SDS011;15906;52.046;4.724;2023-06-26T08:23:54;5.90;;;1.42;;
27539;SDS011;15906;52.046;4.724;2023-06-26T08:26:19;4.00;;;1.58;;
27539;SDS011;15906;52.046;4.724;2023-06-26T08:28:45;2.85;;;1.65;;
27539;SDS011;15906;52.046;4.724;2023-06-26T08:31:10;6.30;;;1.50;;
27539;SDS011;15906;52.046;4.724;2023-06-26T08:33:36;3.55;;;1.58;;
27539;SDS011;15906;52.046;4.724;2023-06-26T08:36:01;4.65;;;1.73;;
27539;SDS011;15906;52.046;4.724;2023-06-26T08:38:27;5.57;;;1.60;;
27539;SDS011;15906;52.046;4.724;2023-06-26T08:40:53;3.40;;;1.65;;
27539;SDS011;15906;52.046;4.724;2023-06-26T08:43:18;5.38;;;1.70;;
27539;SDS011;15906;52.046;4.724;2023-06-26T08:45:45;6.93;;;2.28;;
27539;SDS011;15906;52.046;4.724;2023-06-26T08:48:11;2.80;;;1.30;;
27539;SDS011;15906;52.046;4.724;2023-06-26T08:50:38;3.05;;;1.40;;
27539;SDS011;15906;52.046;4.724;2023-06-26T08:53:04;5.65;;;1.55;;
27539;SDS011;15906;52.046;4.724;2023-06-26T08:55:52;4.60;;;1.67;;
27539;SDS011;15906;52.046;4.724;2023-06-26T08:58:18;4.40;;;1.50;;
27539;SDS011;15906;52.046;4.724;2023-06-26T09:00:44;4.18;;;1.63;;
27539;SDS011;15906;52.046;4.724;2023-06-26T09:03:09;6.55;;;2.00;;
27539;SDS011;15906;52.046;4.724;2023-06-26T09:05:36;10.00;;;3.65;;
27539;SDS011;15906;52.046;4.724;2023-06-26T09:08:01;3.58;;;1.80;;
27539;SDS011;15906;52.046;4.724;2023-06-26T09:10:28;5.80;;;1.70;;
27539;SDS011;15906;52.046;4.724;2023-06-26T09:12:56;3.72;;;1.58;;
27539;SDS011;15906;52.046;4.724;2023-06-26T09:15:23;2.85;;;1.70;;
27539;SDS011;15906;52.046;4.724;2023-06-26T09:17:49;4.15;;;1.35;;
27539;SDS011;15906;52.046;4.724;2023-06-26T09:20:15;3.10;;;1.15;;
27539;SDS011;15906;52.046;4.724;2023-06-26T09:22:41;6.80;;;1.58;;
27539;SDS011;15906;52.046;4.724;2023-06-26T09:25:11;3.75;;;1.23;;
27539;SDS011;15906;52.046;4.724;2023-06-26T09:27:37;4.10;;;2.00;;
27539;SDS011;15906;52.046;4.724;2023-06-26T09:30:03;3.58;;;1.30;;
27539;SDS011;15906;52.046;4.724;2023-06-26T09:32:33;5.65;;;1.63;;
27539;SDS011;15906;52.046;4.724;2023-06-26T09:35:02;2.45;;;1.10;;
27539;SDS011;15906;52.046;4.724;2023-06-26T09:37:29;6.97;;;1.42;;
27539;SDS011;15906;52.046;4.724;2023-06-26T09:39:55;3.70;;;1.58;;
27539;SDS011;15906;52.046;4.724;2023-06-26T09:42:20;4.07;;;1.65;;
27539;SDS011;15906;52.046;4.724;2023-06-26T09:44:47;4.85;;;1.60;;
27539;SDS011;15906;52.046;4.724;2023-06-26T09:47:16;2.55;;;1.70;;
27539;SDS011;15906;52.046;4.724;2023-06-26T09:49:44;5.03;;;1.52;;
27539;SDS011;15906;52.046;4.724;2023-06-26T09:52:10;3.65;;;1.45;;
27539;SDS011;15906;52.046;4.724;2023-06-26T09:54:40;6.75;;;1.67;;
27539;SDS011;15906;52.046;4.724;2023-06-26T09:57:09;5.70;;;1.83;;
27539;SDS011;15906;52.046;4.724;2023-06-26T09:59:36;5.68;;;1.33;;
27539;SDS011;15906;52.046;4.724;2023-06-26T10:02:02;2.70;;;1.77;;
27539;SDS011;15906;52.046;4.724;2023-06-26T10:04:27;2.55;;;1.30;;
27539;SDS011;15906;52.046;4.724;2023-06-26T10:06:56;3.83;;;1.60;;
27539;SDS011;15906;52.046;4.724;2023-06-26T10:09:25;4.72;;;1.50;;
27539;SDS011;15906;52.046;4.724;2023-06-26T10:11:56;3.25;;;1.67;;
27539;SDS011;15906;52.046;4.724;2023-06-26T10:14:26;4.53;;;1.60;;
27539;SDS011;15906;52.046;4.724;2023-06-26T10:16:52;6.05;;;2.30;;
27539;SDS011;15906;52.046;4.724;2023-06-26T10:19:23;4.88;;;1.58;;
27539;SDS011;15906;52.046;4.724;2023-06-26T10:21:54;6.50;;;1.90;;
27539;SDS011;15906;52.046;4.724;2023-06-26T10:24:23;6.32;;;2.15;;
27539;SDS011;15906;52.046;4.724;2023-06-26T10:26:59;4.25;;;1.70;;
27539;SDS011;15906;52.046;4.724;2023-06-26T10:29:28;6.57;;;1.67;;
27539;SDS011;15906;52.046;4.724;2023-06-26T10:31:57;3.47;;;1.58;;
27539;SDS011;15906;52.046;4.724;2023-06-26T10:34:25;4.75;;;1.42;;
27539;SDS011;15906;52.046;4.724;2023-06-26T10:37:00;7.35;;;1.80;;
27539;SDS011;15906;52.046;4.724;2023-06-26T10:39:26;6.18;;;2.45;;
27539;SDS011;15906;52.046;4.724;2023-06-26T10:41:55;4.82;;;1.88;;
27539;SDS011;15906;52.046;4.724;2023-06-26T10:44:41;3.67;;;1.30;;
27539;SDS011;15906;52.046;4.724;2023-06-26T10:47:08;2.53;;;1.48;;
27539;SDS011;15906;52.046;4.724;2023-06-26T10:49:35;7.55;;;1.52;;
27539;SDS011;15906;52.046;4.724;2023-06-26T10:52:02;1.95;;;1.20;;
27539;SDS011;15906;52.046;4.724;2023-06-26T10:54:31;2.90;;;1.45;;
27539;SDS011;15906;52.046;4.724;2023-06-26T10:56:57;2.85;;;1.15;;
27539;SDS011;15906;52.046;4.724;2023-06-26T10:59:24;1.90;;;0.90;;
27539;SDS011;15906;52.046;4.724;2023-06-26T11:04:37;2.75;;;1.00;;
27539;SDS011;15906;52.046;4.724;2023-06-26T11:09:52;4.68;;;1.20;;
27539;SDS011;15906;52.046;4.724;2023-06-26T11:12:38;3.60;;;1.25;;
27539;SDS011;15906;52.046;4.724;2023-06-26T11:15:13;2.22;;;1.10;;
27539;SDS011;15906;52.046;4.724;2023-06-26T11:17:41;3.53;;;1.27;;
27539;SDS011;15906;52.046;4.724;2023-06-26T11:20:09;3.05;;;1.25;;
27539;SDS011;15906;52.046;4.724;2023-06-26T11:22:36;3.42;;;1.10;;
27539;SDS011;15906;52.046;4.724;2023-06-26T11:25:03;4.10;;;1.08;;
27539;SDS011;15906;52.046;4.724;2023-06-26T11:27:40;2.35;;;1.25;;
27539;SDS011;15906;52.046;4.724;2023-06-26T11:30:07;4.90;;;1.20;;
27539;SDS011;15906;52.046;4.724;2023-06-26T11:32:35;3.25;;;1.13;;
27539;SDS011;15906;52.046;4.724;2023-06-26T11:35:01;3.85;;;1.30;;
27539;SDS011;15906;52.046;4.724;2023-06-26T11:37:29;4.15;;;1.50;;
27539;SDS011;15906;52.046;4.724;2023-06-26T11:39:55;3.13;;;1.30;;
27539;SDS011;15906;52.046;4.724;2023-06-26T11:42:21;3.60;;;0.98;;
27539;SDS011;15906;52.046;4.724;2023-06-26T11:44:47;2.20;;;0.90;;
27539;SDS011;15906;52.046;4.724;2023-06-26T11:47:16;2.20;;;1.10;;
27539;SDS011;15906;52.046;4.724;2023-06-26T11:49:43;3.60;;;1.58;;
27539;SDS011;15906;52.046;4.724;2023-06-26T11:52:13;4.75;;;1.30;;
27539;SDS011;15906;52.046;4.724;2023-06-26T11:54:40;4.68;;;1.27;;
27539;SDS011;15906;52.046;4.724;2023-06-26T11:57:06;3.05;;;1.00;;
27539;SDS011;15906;52.046;4.724;2023-06-26T11:59:36;4.63;;;0.95;;
27539;SDS011;15906;52.046;4.724;2023-06-26T12:02:04;2.70;;;1.10;;
27539;SDS011;15906;52.046;4.724;2023-06-26T12:04:31;4.10;;;1.20;;
27539;SDS011;15906;52.046;4.724;2023-06-26T12:06:59;2.60;;;1.10;;
27539;SDS011;15906;52.046;4.724;2023-06-26T12:09:25;2.22;;;0.90;;
27539;SDS011;15906;52.046;4.724;2023-06-26T12:11:52;2.42;;;1.10;;
27539;SDS011;15906;52.046;4.724;2023-06-26T12:14:20;6.45;;;1.92;;
27539;SDS011;15906;52.046;4.724;2023-06-26T12:16:47;2.85;;;1.10;;
27539;SDS011;15906;52.046;4.724;2023-06-26T12:19:13;2.17;;;0.90;;
27539;SDS011;15906;52.046;4.724;2023-06-26T12:24:17;6.35;;;1.20;;
27539;SDS011;15906;52.046;4.724;2023-06-26T12:26:45;1.83;;;1.10;;
27539;SDS011;15906;52.046;4.724;2023-06-26T12:29:14;5.80;;;1.83;;
27539;SDS011;15906;52.046;4.724;2023-06-26T12:31:42;4.88;;;1.00;;
27539;SDS011;15906;52.046;4.724;2023-06-26T12:34:10;4.82;;;1.15;;
27539;SDS011;15906;52.046;4.724;2023-06-26T12:36:43;2.33;;;1.10;;
27539;SDS011;15906;52.046;4.724;2023-06-26T12:39:11;7.05;;;1.60;;
27539;SDS011;15906;52.046;4.724;2023-06-26T12:41:47;3.60;;;1.10;;
27539;SDS011;15906;52.046;4.724;2023-06-26T12:44:25;5.75;;;1.48;;
27539;SDS011;15906;52.046;4.724;2023-06-26T12:47:02;2.58;;;1.23;;
27539;SDS011;15906;52.046;4.724;2023-06-26T12:49:34;7.78;;;1.45;;
27539;SDS011;15906;52.046;4.724;2023-06-26T12:52:04;4.57;;;1.20;;
27539;SDS011;15906;52.046;4.724;2023-06-26T12:54:32;3.95;;;1.10;;
27539;SDS011;15906;52.046;4.724;2023-06-26T12:56:59;5.68;;;1.20;;
27539;SDS011;15906;52.046;4.724;2023-06-26T12:59:24;3.05;;;1.15;;
27539;SDS011;15906;52.046;4.724;2023-06-26T13:01:50;4.72;;;1.17;;
27539;SDS011;15906;52.046;4.724;2023-06-26T13:04:16;2.78;;;0.95;;
27539;SDS011;15906;52.046;4.724;2023-06-26T13:06:41;3.50;;;1.20;;
27539;SDS011;15906;52.046;4.724;2023-06-26T13:09:07;1.98;;;1.17;;
27539;SDS011;15906;52.046;4.724;2023-06-26T13:11:33;3.33;;;1.20;;
27539;SDS011;15906;52.046;4.724;2023-06-26T13:14:00;3.83;;;1.48;;
27539;SDS011;15906;52.046;4.724;2023-06-26T13:16:25;1.60;;;1.20;;
27539;SDS011;15906;52.046;4.724;2023-06-26T13:18:51;3.15;;;1.33;;
27539;SDS011;15906;52.046;4.724;2023-06-26T13:21:17;4.32;;;1.20;;
27539;SDS011;15906;52.046;4.724;2023-06-26T13:23:43;3.97;;;1.05;;
27539;SDS011;15906;52.046;4.724;2023-06-26T13:26:10;3.33;;;1.65;;
27539;SDS011;15906;52.046;4.724;2023-06-26T13:28:36;3.20;;;1.38;;
27539;SDS011;15906;52.046;4.724;2023-06-26T13:31:02;2.97;;;0.90;;
27539;SDS011;15906;52.046;4.724;2023-06-26T13:33:28;2.15;;;1.00;;
27539;SDS011;15906;52.046;4.724;2023-06-26T13:35:54;1.63;;;1.00;;
27539;SDS011;15906;52.046;4.724;2023-06-26T13:38:20;6.70;;;1.35;;
27539;SDS011;15906;52.046;4.724;2023-06-26T13:40:50;2.20;;;1.10;;
27539;SDS011;15906;52.046;4.724;2023-06-26T13:43:20;2.08;;;0.93;;
27539;SDS011;15906;52.046;4.724;2023-06-26T13:45:47;4.95;;;1.98;;
27539;SDS011;15906;52.046;4.724;2023-06-26T13:48:13;4.35;;;1.10;;
27539;SDS011;15906;52.046;4.724;2023-06-26T13:50:38;2.17;;;1.10;;
27539;SDS011;15906;52.046;4.724;2023-06-26T13:53:04;1.80;;;1.10;;
27539;SDS011;15906;52.046;4.724;2023-06-26T13:55:30;1.05;;;0.88;;
27539;SDS011;15906;52.046;4.724;2023-06-26T13:57:56;2.65;;;1.00;;
27539;SDS011;15906;52.046;4.724;2023-06-26T14:00:22;2.70;;;1.10;;
27539;SDS011;15906;52.046;4.724;2023-06-26T14:02:47;5.93;;;1.20;;
27539;SDS011;15906;52.046;4.724;2023-06-26T14:05:13;2.95;;;1.00;;
27539;SDS011;15906;52.046;4.724;2023-06-26T14:07:39;2.13;;;1.00;;
27539;SDS011;15906;52.046;4.724;2023-06-26T14:10:05;1.77;;;0.90;;
27539;SDS011;15906;52.046;4.724;2023-06-26T14:12:31;2.25;;;1.08;;
27539;SDS011;15906;52.046;4.724;2023-06-26T14:14:57;1.58;;;0.90;;
27539;SDS011;15906;52.046;4.724;2023-06-26T14:17:23;1.02;;;0.68;;
27539;SDS011;15906;52.046;4.724;2023-06-26T14:19:51;2.30;;;1.05;;
27539;SDS011;15906;52.046;4.724;2023-06-26T14:22:17;3.03;;;1.00;;
27539;SDS011;15906;52.046;4.724;2023-06-26T14:24:43;2.50;;;1.20;;
27539;SDS011;15906;52.046;4.724;2023-06-26T14:27:08;1.83;;;0.93;;
27539;SDS011;15906;52.046;4.724;2023-06-26T14:29:35;3.47;;;1.13;;
27539;SDS011;15906;52.046;4.724;2023-06-26T14:32:01;1.83;;;0.90;;
27539;SDS011;15906;52.046;4.724;2023-06-26T14:34:27;2.67;;;1.00;;
27539;SDS011;15906;52.046;4.724;2023-06-26T14:36:53;2.33;;;1.05;;
27539;SDS011;15906;52.046;4.724;2023-06-26T14:39:18;2.33;;;1.20;;
27539;SDS011;15906;52.046;4.724;2023-06-26T14:41:44;4.20;;;1.17;;
27539;SDS011;15906;52.046;4.724;2023-06-26T14:44:10;4.72;;;1.20;;
27539;SDS011;15906;52.046;4.724;2023-06-26T14:46:36;2.00;;;1.15;;
27539;SDS011;15906;52.046;4.724;2023-06-26T14:49:02;2.35;;;1.08;;
27539;SDS011;15906;52.046;4.724;2023-06-26T14:51:28;3.42;;;0.98;;
27539;SDS011;15906;52.046;4.724;2023-06-26T14:53:53;3.13;;;1.05;;
27539;SDS011;15906;52.046;4.724;2023-06-26T14:56:19;1.88;;;1.10;;
27539;SDS011;15906;52.046;4.724;2023-06-26T14:58:45;4.22;;;1.20;;
27539;SDS011;15906;52.046;4.724;2023-06-26T15:01:14;1.83;;;1.05;;